New Harbor, ME (Heathkit)

43° 52' 34"N, 69° 29' 40"W, Elevation 65 ft.
Eastern Time

Hourly observations for the last 72 hours

Date Time Temperature (°F) Humi-
dity

(%)
Wind
(mph)
Pressure Rain (in)
Air Dew 6 Hour 1 Hr 3 Hr 6 Hr Day
Alt
(in)
Sea
Level

(mb)
Max Min
16 10:00 68 50 52 SE 1 G 3 30.18 1022.0 0.00
16 09:00 64 46 51 SSW 3 G 7 30.17 1021.7 0.00
16 08:00 59 46 59 44 63 SE 2 G 9 30.17 1021.7 0.00
16 07:00 54 44 69 S 2 G 9 30.14 1020.7 0.00
16 06:00 50 41 72 S 3 G 7 30.13 1020.4 0.00
16 05:00 50 41 71 S 3 G 8 30.10 1019.3 0.00
16 04:00 49 40 70 SSW 2 G 7 30.07 1018.3 0.00
16 03:00 50 41 70 SW 2 G 5 30.07 1018.3 0.00
16 02:00 52 44 64 49 73 SSW 3 G 5 30.04 1017.3 0.00
16 01:00 55 46 71 SSW 2 G 5 30.02 1016.6 0.00
16 00:00 54 45 71 S 1 G 4 30.00 1016.0 0.10
15 23:00 55 46 71 SW 2 G 3 30.00 1016.0 0.10
15 22:00 58 48 69 WSW 1 G 4 29.99 1015.6 0.10
15 21:00 60 47 61 S 1 G 4 29.96 1014.6 0.10
15 20:00 64 48 72 60 55 S 2 G 7 29.92 1013.2 0.10
15 19:00 66 48 52 ESE 2 G 9 29.89 1012.2 0.10
15 18:00 68 49 50 SE 2 G 9 29.87 1011.5 0.10
15 17:00 68 49 50 S 4 G 12 29.84 1010.5 0.10
15 16:00 70 49 47 S 7 G 18 29.84 1010.5 0.10
15 15:00 70 50 49 SSE 4 G 12 29.82 1009.9 0.10
15 14:00 71 52 71 55 51 ESE 3 G 14 29.81 1009.5 0.10
15 13:00 70 53 55 SSW 4 G 16 29.81 1009.5 0.10
15 12:00 69 55 62 SE 4 G 12 29.81 1009.5 0.10
15 11:00 68 57 68 SSE 4 G 17 29.81 1009.5 0.10
15 10:00 67 57 69 SSW 4 G 9 29.80 1009.2 0.10
15 09:00 61 38 43 SSE 3 G 12 29.81 1009.5 0.10
15 08:00 60 19 65 56 20 SE 3 G 8 29.81 1009.5 0.04 0.10 0.10
15 07:00 60 3 10 SSW 3 G 6 29.79 1008.8 0.10
15 06:00 60 11 14 E 1 G 4 29.77 1008.2 0.04 0.09
15 05:00 62 19 19 S 1 G 6 29.77 1008.2 0.06 0.06 0.06
15 04:00 65 51 61 S 2 G 4 29.74 1007.1 0.00
15 03:00 65 48 55 SSW 2 G 8 29.73 1006.8 0.00
15 02:00 62 25 65 57 24 SE 1 G 2 29.71 1006.1 0.00
15 01:00 63 31 30 SE 0 G 2 29.73 1006.8 0.00
15 00:00 63 39 41 SE 1 G 6 29.71 1006.1 0.00
14 23:00 63 34 34 WSW 1 G 4 29.73 1006.8 0.00
14 22:00 63 39 41 SW 3 G 7 29.72 1006.5 0.00
14 21:00 63 41 44 WSW 4 G 10 29.73 1006.8 0.00
14 20:00 65 49 70 60 57 SSW 5 G 11 29.72 1006.5 0.00
14 19:00 69 57 66 SSW 2 G 9 29.69 1005.5 0.00
14 18:00 69 57 65 S 2 G 15 29.68 1005.1 0.00
14 17:00 67 48 50 S 4 G 13 29.69 1005.5 0.00
14 16:00 64 44 49 S 3 G 12 29.70 1005.8 0.00
14 15:00 65 48 55 S 6 G 12 29.71 1006.1 0.00
14 14:00 67 52 69 59 59 S 5 G 17 29.72 1006.5 0.00
14 13:00 64 41 43 SW 4 G 14 29.72 1006.5 0.00
14 12:00 65 44 47 S 4 G 9 29.73 1006.8 0.00
14 11:00 65 47 53 SSW 6 G 15 29.74 1007.1 0.00
14 10:00 67 54 62 SSW 5 G 14 29.74 1007.1 0.00
14 09:00 68 55 62 SW 6 G 14 29.74 1007.1 0.00
14 08:00 64 43 64 54 47 SSW 5 G 16 29.74 1007.1 0.00
14 07:00 62 32 32 S 4 G 11 29.74 1007.1 0.00
14 06:00 60 27 28 SSW 3 G 15 29.74 1007.1 0.00
14 05:00 60 30 32 SW 1 G 4 29.73 1006.8 0.00
14 04:00 60 30 32 S 3 G 14 29.73 1006.8 0.00
14 03:00 61 37 41 SSW 2 G 9 29.73 1006.8 0.00
14 02:00 62 38 65 56 41 SSW 3 G 9 29.76 1007.8 0.00
14 01:00 62 37 40 SSW 2 G 6 29.77 1008.2 0.00
14 00:00 62 37 40 SSW 3 G 7 29.78 1008.5 0.00
13 23:00 62 37 40 SW 3 G 7 29.79 1008.8 0.00
13 22:00 62 37 40 SSW 2 G 7 29.81 1009.5 0.00
13 21:00 63 40 42 SSW 3 G 7 29.82 1009.9 0.00
13 20:00 65 51 73 60 60 SSE 3 G 9 29.83 1010.2 0.00
13 19:00 67 57 71 S 4 G 14 29.83 1010.2 0.00
13 18:00 68 58 71 SSW 3 G 12 29.83 1010.2 0.00
13 17:00 71 60 67 S 5 G 11 29.84 1010.5 0.00
13 16:00 72 61 69 S 4 G 11 29.85 1010.9 0.00
13 15:00 73 62 68 S 4 G 10 29.86 1011.2 0.00
13 14:00 72 62 75 56 70 S 4 G 10 29.87 1011.5 0.00
13 13:00 73 61 67 SE 2 G 5 29.88 1011.9 0.00
13 12:00 73 62 68 SSE 3 G 5 29.89 1012.2 0.00
13 11:00 72 61 69 SE 1 G 6 29.90 1012.6 0.00

Data generated by WxSolution Version 1.9.1.8, Build 2020.02.16.